createdAt,value
2018-04-18T00:00:33.536Z,5.20
2018-04-18T00:03:02.431Z,6.10
2018-04-18T00:05:31.403Z,6.20
2018-04-18T00:08:03.973Z,6.73
2018-04-18T00:10:33.181Z,6.47
2018-04-18T00:13:02.170Z,6.27
2018-04-18T00:15:32.114Z,6.93
2018-04-18T00:18:01.076Z,6.30
2018-04-18T00:20:30.311Z,6.50
2018-04-18T00:23:00.185Z,6.00
2018-04-18T00:25:29.295Z,6.97
2018-04-18T00:27:58.316Z,6.50
2018-04-18T00:30:28.344Z,7.47
2018-04-18T00:32:58.006Z,5.80
2018-04-18T00:35:26.925Z,6.57
2018-04-18T00:37:58.660Z,6.93
2018-04-18T00:40:28.053Z,7.70
2018-04-18T00:42:56.855Z,8.13
2018-04-18T00:45:25.933Z,8.80
2018-04-18T00:47:54.950Z,8.90
2018-04-18T00:50:23.836Z,9.87
2018-04-18T00:52:52.959Z,9.97
2018-04-18T00:55:22.233Z,10.57
2018-04-18T00:57:52.156Z,9.40
2018-04-18T01:00:22.309Z,9.87
2018-04-18T01:02:51.468Z,8.90
2018-04-18T01:05:20.564Z,10.60
2018-04-18T01:10:24.925Z,10.07
2018-04-18T01:12:53.900Z,11.40
2018-04-18T01:15:22.993Z,12.00
2018-04-18T01:20:26.024Z,10.73
2018-04-18T01:22:54.988Z,10.40
2018-04-18T01:25:23.983Z,11.87
2018-04-18T01:27:52.898Z,10.50
2018-04-18T01:30:21.867Z,11.20
2018-04-18T01:32:50.963Z,10.40
2018-04-18T01:35:20.161Z,10.90
2018-04-18T01:37:49.152Z,10.37
2018-04-18T01:40:19.807Z,11.70
2018-04-18T01:42:48.751Z,10.80
2018-04-18T01:45:18.635Z,11.00
2018-04-18T01:50:21.599Z,12.40
2018-04-18T01:52:50.497Z,10.83
2018-04-18T01:55:20.336Z,11.00
2018-04-18T01:57:49.365Z,10.47
2018-04-18T02:00:19.051Z,8.60
2018-04-18T02:02:49.175Z,8.23
2018-04-18T02:05:19.108Z,8.33
2018-04-18T02:07:48.182Z,8.97
2018-04-18T02:10:20.312Z,8.47
2018-04-18T02:12:50.130Z,8.50
2018-04-18T02:15:19.201Z,8.27
2018-04-18T02:17:49.234Z,8.43
2018-04-18T02:20:18.234Z,10.17
2018-04-18T02:22:47.228Z,8.97
2018-04-18T02:25:16.322Z,8.20
2018-04-18T02:27:45.214Z,8.93
2018-04-18T02:30:14.142Z,9.10
2018-04-18T02:32:43.902Z,8.23
2018-04-18T02:35:13.322Z,9.03
2018-04-18T02:37:43.032Z,8.80
2018-04-18T02:40:13.726Z,10.03
2018-04-18T02:42:42.925Z,9.80
2018-04-18T02:45:11.857Z,10.50
2018-04-18T02:47:42.492Z,10.30
2018-04-18T02:50:11.592Z,11.00
2018-04-18T02:52:40.511Z,10.93
2018-04-18T02:55:09.488Z,12.27
2018-04-18T02:57:38.413Z,13.20
2018-04-18T03:00:09.059Z,12.10
2018-04-18T03:02:38.128Z,11.90
2018-04-18T03:05:07.090Z,10.83
2018-04-18T03:07:36.073Z,13.30
2018-04-18T03:10:06.173Z,13.10
2018-04-18T03:12:35.297Z,12.20
2018-04-18T03:15:04.399Z,13.97
2018-04-18T03:17:33.493Z,13.80
2018-04-18T03:20:02.628Z,14.80
2018-04-18T03:22:32.329Z,15.10
2018-04-18T03:25:01.369Z,14.17
2018-04-18T03:27:30.285Z,14.40
2018-04-18T03:29:59.309Z,15.37
2018-04-18T03:32:28.514Z,14.67
2018-04-18T03:34:57.470Z,15.80
2018-04-18T03:37:26.465Z,15.27
2018-04-18T03:39:56.769Z,15.43
2018-04-18T03:42:25.930Z,15.43
2018-04-18T03:44:54.878Z,13.97
2018-04-18T03:47:26.057Z,14.07
2018-04-18T03:49:55.097Z,13.60
2018-04-18T03:52:24.008Z,14.10
2018-04-18T03:54:53.107Z,12.37
2018-04-18T03:57:22.031Z,12.33
2018-04-18T03:59:51.092Z,12.30
2018-04-18T04:02:24.796Z,13.20
2018-04-18T04:04:53.892Z,12.00
2018-04-18T04:07:23.197Z,12.80
2018-04-18T04:09:53.010Z,11.33
2018-04-18T04:12:22.003Z,10.47
2018-04-18T04:14:51.102Z,10.17
2018-04-18T04:20:17.867Z,9.60
2018-04-18T04:22:59.352Z,9.47
2018-04-18T04:25:28.340Z,9.30
2018-04-18T04:27:57.530Z,8.30
2018-04-18T04:33:01.779Z,8.90
2018-04-18T04:35:30.665Z,7.80
2018-04-18T04:38:00.694Z,7.43
2018-04-18T04:40:29.786Z,8.83
2018-04-18T04:42:59.813Z,8.57
2018-04-18T04:45:29.066Z,8.80
2018-04-18T04:47:58.170Z,8.83
2018-04-18T04:50:27.101Z,8.33
2018-04-18T04:52:56.200Z,8.03
2018-04-18T04:55:25.190Z,7.60
2018-04-18T04:57:54.218Z,7.10
2018-04-18T05:02:58.008Z,9.17
2018-04-18T05:05:27.858Z,9.53
2018-04-18T05:08:04.144Z,8.80
2018-04-18T05:10:34.821Z,10.20
2018-04-18T05:13:04.655Z,9.17
2018-04-18T05:15:34.039Z,9.80
2018-04-18T05:18:03.033Z,10.13
2018-04-18T05:23:06.443Z,11.50
2018-04-18T05:25:36.673Z,11.40
2018-04-18T05:28:05.880Z,10.93
2018-04-18T05:30:34.901Z,10.60
2018-04-18T05:33:05.934Z,11.30
2018-04-18T05:35:38.583Z,11.03
2018-04-18T05:38:07.630Z,10.70
2018-04-18T05:40:36.700Z,8.90
2018-04-18T05:43:05.675Z,9.70
2018-04-18T05:45:34.768Z,9.33
2018-04-18T05:48:04.431Z,9.30
2018-04-18T05:50:33.574Z,9.27
2018-04-18T05:53:02.559Z,8.17
2018-04-18T05:55:31.663Z,7.80
2018-04-18T05:58:03.313Z,8.37
2018-04-18T06:00:32.321Z,7.80
2018-04-18T06:03:01.417Z,7.30
2018-04-18T06:05:30.507Z,8.70
2018-04-18T06:07:59.505Z,6.17
2018-04-18T06:10:28.495Z,7.23
2018-04-18T06:12:58.382Z,6.00
2018-04-18T06:15:27.402Z,6.60
2018-04-18T06:17:56.297Z,7.00
2018-04-18T06:20:26.935Z,6.70
2018-04-18T06:22:55.862Z,7.13
2018-04-18T06:25:24.860Z,7.20
2018-04-18T06:27:56.724Z,8.07
2018-04-18T06:30:25.765Z,7.57
2018-04-18T06:32:54.663Z,7.00
2018-04-18T06:35:23.755Z,5.67
2018-04-18T06:37:53.553Z,6.90
2018-04-18T06:40:22.464Z,7.37
2018-04-18T06:45:25.575Z,7.50
2018-04-18T06:47:54.563Z,5.60
2018-04-18T06:50:23.604Z,6.37
2018-04-18T06:52:52.499Z,9.37
2018-04-18T06:55:21.510Z,8.77
2018-04-18T06:57:52.319Z,8.20
2018-04-18T07:00:21.239Z,7.57
2018-04-18T07:02:50.369Z,9.03
2018-04-18T07:05:19.374Z,8.90
2018-04-18T07:07:48.504Z,8.90
2018-04-18T07:10:18.275Z,8.40
2018-04-18T07:12:47.993Z,8.93
2018-04-18T07:15:16.885Z,8.67
2018-04-18T07:17:45.769Z,8.37
2018-04-18T07:20:14.873Z,8.47
2018-04-18T07:22:43.860Z,9.27
2018-04-18T07:25:12.820Z,9.13
2018-04-18T07:30:17.401Z,9.33
2018-04-18T07:32:46.608Z,9.70
2018-04-18T07:35:16.588Z,9.50
2018-04-18T07:37:45.611Z,9.50
2018-04-18T07:40:14.541Z,7.53
2018-04-18T07:42:44.237Z,8.80
2018-04-18T07:45:13.313Z,9.40
2018-04-18T07:47:42.273Z,8.53
2018-04-18T07:50:13.146Z,8.33
2018-04-18T07:52:42.039Z,9.13
2018-04-18T07:55:11.587Z,8.00
2018-04-18T07:57:42.476Z,9.13
2018-04-18T08:00:11.611Z,8.50
2018-04-18T08:02:42.683Z,10.03
2018-04-18T08:05:12.057Z,8.70
2018-04-18T08:07:40.894Z,8.23
2018-04-18T08:10:09.745Z,7.80
2018-04-18T08:12:38.759Z,8.40
2018-04-18T08:15:07.589Z,8.07
2018-04-18T08:17:36.394Z,8.00
2018-04-18T08:20:05.275Z,7.00
2018-04-18T08:22:34.238Z,6.60
2018-04-18T08:25:03.213Z,6.60
2018-04-18T08:27:32.826Z,6.90
2018-04-18T08:30:01.712Z,7.00
2018-04-18T08:32:30.592Z,7.20
2018-04-18T08:37:33.945Z,6.37
2018-04-18T08:40:02.773Z,5.67
2018-04-18T08:42:33.549Z,5.73
2018-04-18T08:45:02.379Z,5.63
2018-04-18T08:47:31.167Z,4.80
2018-04-18T08:50:00.148Z,5.97
2018-04-18T08:52:30.083Z,5.10
2018-04-18T08:54:58.968Z,5.90
2018-04-18T08:57:27.818Z,5.33
2018-04-18T08:59:56.711Z,4.93
2018-04-18T09:02:25.571Z,4.93
2018-04-18T09:05:00.588Z,5.87
2018-04-18T09:07:29.716Z,5.00
2018-04-18T09:09:58.702Z,5.17
2018-04-18T09:12:27.574Z,5.40
2018-04-18T09:14:56.420Z,5.03
2018-04-18T09:17:25.305Z,4.03
2018-04-18T09:22:28.612Z,5.00
2018-04-18T09:24:57.412Z,5.03
2018-04-18T09:27:26.250Z,5.40
2018-04-18T09:29:55.054Z,6.60
2018-04-18T09:32:23.853Z,6.90
2018-04-18T09:34:55.328Z,6.40
2018-04-18T09:37:27.564Z,6.20
2018-04-18T09:39:56.522Z,5.60
2018-04-18T09:42:26.444Z,5.27
2018-04-18T09:44:56.487Z,5.23
2018-04-18T09:49:59.827Z,4.90
2018-04-18T09:52:28.619Z,4.90
2018-04-18T09:54:57.466Z,4.53
2018-04-18T09:57:26.334Z,5.40
2018-04-18T09:59:55.193Z,5.90
2018-04-18T10:02:30.957Z,6.10
2018-04-18T10:05:05.177Z,5.27
2018-04-18T10:10:07.909Z,6.70
2018-04-18T10:12:37.318Z,5.63
2018-04-18T10:15:07.197Z,5.30
2018-04-18T10:17:36.221Z,5.30
2018-04-18T10:20:05.266Z,5.50
2018-04-18T10:22:34.519Z,6.20
2018-04-18T10:25:03.512Z,6.00
2018-04-18T10:27:33.332Z,6.07
2018-04-18T10:30:02.414Z,5.90
2018-04-18T10:32:31.370Z,5.40
2018-04-18T10:35:00.418Z,5.30
2018-04-18T10:37:31.388Z,5.43
2018-04-18T10:40:00.213Z,6.23
2018-04-18T10:42:29.116Z,5.50
2018-04-18T10:44:58.810Z,5.77
2018-04-18T10:47:27.626Z,6.50
2018-04-18T10:49:57.389Z,7.03
2018-04-18T10:52:28.868Z,6.13
2018-04-18T10:54:57.680Z,6.30
2018-04-18T10:57:26.533Z,9.33
2018-04-18T11:02:29.550Z,6.50
2018-04-18T11:04:58.482Z,5.90
2018-04-18T11:07:28.276Z,4.93
2018-04-18T11:09:57.094Z,6.77
2018-04-18T11:12:25.880Z,7.67
2018-04-18T11:14:54.761Z,8.10
2018-04-18T11:17:23.574Z,5.30
2018-04-18T11:19:52.368Z,4.77
2018-04-18T11:22:21.209Z,5.17
2018-04-18T11:24:50.067Z,4.67
2018-04-18T11:27:18.884Z,5.70
2018-04-18T11:29:48.624Z,5.30
2018-04-18T11:32:18.493Z,6.20
2018-04-18T11:34:47.307Z,5.00
2018-04-18T11:37:16.181Z,5.70
2018-04-18T11:39:45.628Z,4.87
2018-04-18T11:42:14.511Z,4.37
2018-04-18T11:44:43.479Z,5.10
2018-04-18T11:47:12.283Z,4.90
2018-04-18T11:49:41.143Z,5.10
2018-04-18T11:52:10.069Z,4.87
2018-04-18T11:54:38.896Z,5.20
2018-04-18T11:57:07.738Z,4.73
2018-04-18T11:59:38.246Z,5.53
2018-04-18T12:02:07.838Z,5.67
2018-04-18T12:04:37.236Z,4.80
2018-04-18T12:07:07.814Z,5.00
2018-04-18T12:09:36.827Z,3.90
2018-04-18T12:12:09.305Z,4.73
2018-04-18T12:14:40.915Z,4.33
2018-04-18T12:17:12.762Z,4.20
2018-04-18T12:19:42.448Z,4.70
2018-04-18T12:22:11.440Z,4.77
2018-04-18T12:24:40.492Z,4.87
2018-04-18T12:27:09.409Z,4.57
2018-04-18T12:29:38.308Z,4.67
2018-04-18T12:32:07.441Z,4.73
2018-04-18T12:34:36.393Z,5.37
2018-04-18T12:37:05.375Z,4.60
2018-04-18T12:39:34.380Z,4.30
2018-04-18T12:42:03.478Z,4.10
2018-04-18T12:44:32.474Z,4.00
2018-04-18T12:47:01.673Z,4.30
2018-04-18T12:49:30.592Z,4.37
2018-04-18T12:51:59.568Z,4.13
2018-04-18T12:54:28.547Z,4.07
2018-04-18T12:56:57.477Z,4.40
2018-04-18T12:59:27.462Z,4.70
2018-04-18T13:04:30.709Z,4.83
2018-04-18T13:06:59.695Z,4.17
2018-04-18T13:09:28.660Z,4.30
2018-04-18T13:11:57.750Z,4.43
2018-04-18T13:14:26.852Z,4.50
2018-04-18T13:16:56.865Z,4.00
2018-04-18T13:19:27.546Z,4.13
2018-04-18T13:21:58.591Z,4.63
2018-04-18T13:24:28.561Z,4.33
2018-04-18T13:26:57.656Z,4.27
2018-04-18T13:29:26.753Z,4.97
2018-04-18T13:31:55.845Z,3.70
2018-04-18T13:34:25.054Z,4.00
2018-04-18T13:36:54.826Z,4.80
2018-04-18T13:39:23.750Z,4.43
2018-04-18T13:41:52.675Z,3.93
2018-04-18T13:44:25.069Z,4.23
2018-04-18T13:46:54.043Z,4.13
2018-04-18T13:49:23.009Z,4.40
2018-04-18T13:51:52.990Z,4.10
2018-04-18T13:54:21.918Z,4.67
2018-04-18T13:56:50.948Z,4.30
2018-04-18T13:59:22.730Z,4.80
2018-04-18T14:01:51.660Z,4.03
2018-04-18T14:04:20.658Z,4.43
2018-04-18T14:09:24.631Z,4.00
2018-04-18T14:11:54.502Z,3.70
2018-04-18T14:14:23.627Z,5.20
2018-04-18T14:16:52.697Z,4.70
2018-04-18T14:19:21.725Z,4.10
2018-04-18T14:21:50.679Z,3.97
2018-04-18T14:24:19.681Z,4.27
2018-04-18T14:26:49.297Z,4.60
2018-04-18T14:29:18.383Z,4.23
2018-04-18T14:31:47.763Z,4.03
2018-04-18T14:34:16.677Z,3.60
2018-04-18T14:36:45.673Z,5.13
2018-04-18T14:39:15.658Z,4.87
2018-04-18T14:41:44.602Z,4.73
2018-04-18T14:44:13.573Z,4.17
2018-04-18T14:46:43.287Z,4.87
2018-04-18T14:49:12.281Z,4.10
2018-04-18T14:51:41.871Z,4.73
2018-04-18T14:54:10.782Z,4.17
2018-04-18T14:56:39.805Z,4.47
2018-04-18T14:59:10.300Z,3.80
2018-04-18T15:01:39.299Z,3.90
2018-04-18T15:04:09.210Z,3.50
2018-04-18T15:06:39.024Z,4.50
2018-04-18T15:09:08.061Z,4.30
2018-04-18T15:11:37.010Z,4.10
2018-04-18T15:14:08.590Z,4.27
2018-04-18T15:16:37.558Z,3.70
2018-04-18T15:19:07.488Z,3.67
2018-04-18T15:21:36.501Z,4.47
2018-04-18T15:24:05.671Z,4.40
2018-04-18T15:26:35.544Z,4.43
2018-04-18T15:29:04.702Z,4.10
2018-04-18T15:31:33.995Z,4.50
2018-04-18T15:34:03.899Z,4.43
2018-04-18T15:36:32.863Z,5.70
2018-04-18T15:39:01.900Z,5.40
2018-04-18T15:41:30.885Z,6.30
2018-04-18T15:43:59.835Z,5.40
2018-04-18T15:46:28.869Z,5.97
2018-04-18T15:48:59.009Z,5.67
2018-04-18T15:51:28.603Z,6.63
2018-04-18T15:53:57.600Z,7.40
2018-04-18T15:56:28.233Z,5.03
2018-04-18T15:58:57.326Z,5.07
2018-04-18T16:01:26.418Z,4.77
2018-04-18T16:03:55.373Z,6.30
2018-04-18T16:06:26.864Z,5.97
2018-04-18T16:08:57.025Z,17.00
2018-04-18T16:11:25.912Z,5.00
2018-04-18T16:13:54.873Z,4.80
2018-04-18T16:16:24.779Z,4.57
2018-04-18T16:18:53.878Z,4.70
2018-04-18T16:21:22.978Z,4.60
2018-04-18T16:23:52.226Z,4.70
2018-04-18T16:26:21.993Z,4.93
2018-04-18T16:31:25.823Z,8.47
2018-04-18T16:33:54.850Z,6.60
2018-04-18T16:36:23.946Z,7.73
2018-04-18T16:38:53.102Z,5.87
2018-04-18T16:41:22.303Z,7.20
2018-04-18T16:43:54.168Z,5.90
2018-04-18T16:46:23.165Z,5.70
2018-04-18T16:48:52.153Z,5.40
2018-04-18T16:51:22.185Z,5.83
2018-04-18T16:53:51.246Z,4.40
2018-04-18T16:56:20.275Z,6.70
2018-04-18T17:01:24.829Z,11.97
2018-04-18T17:03:55.946Z,15.20
2018-04-18T17:06:26.020Z,10.67
2018-04-18T17:08:55.000Z,9.30
2018-04-18T17:11:23.964Z,9.67
2018-04-18T17:13:53.045Z,9.60
2018-04-18T17:16:21.964Z,10.40
2018-04-18T17:18:51.154Z,11.40
2018-04-18T17:21:21.223Z,11.20
2018-04-18T17:23:50.165Z,10.33
2018-04-18T17:26:19.153Z,12.20
2018-04-18T17:28:50.091Z,13.33
2018-04-18T17:31:20.519Z,13.57
2018-04-18T17:33:49.459Z,14.67
2018-04-18T17:36:18.568Z,23.70
2018-04-18T17:38:48.027Z,15.63
2018-04-18T17:41:17.882Z,19.07
2018-04-18T17:43:46.914Z,18.17
2018-04-18T17:46:15.919Z,19.50
2018-04-18T17:48:45.933Z,17.40
2018-04-18T17:51:20.454Z,16.97
2018-04-18T17:53:49.348Z,13.23
2018-04-18T17:56:18.341Z,16.70
2018-04-18T17:58:47.539Z,15.83
2018-04-18T18:01:17.251Z,16.10
2018-04-18T18:03:47.067Z,15.40
2018-04-18T18:06:16.985Z,15.40
2018-04-18T18:08:46.075Z,14.33
2018-04-18T18:11:15.216Z,12.70
2018-04-18T18:13:47.281Z,12.97
2018-04-18T18:16:16.746Z,12.20
2018-04-18T18:18:45.700Z,13.60
2018-04-18T18:21:14.726Z,10.70
2018-04-18T18:23:43.625Z,11.37
2018-04-18T18:26:14.069Z,11.97
2018-04-18T18:28:45.101Z,11.70
2018-04-18T18:31:14.606Z,9.87
2018-04-18T18:33:43.596Z,7.10
2018-04-18T18:36:13.450Z,7.57
2018-04-18T18:38:42.509Z,10.00
2018-04-18T18:41:11.400Z,11.27
2018-04-18T18:43:40.940Z,9.53
2018-04-18T18:46:10.741Z,6.73
2018-04-18T18:48:43.154Z,8.00
2018-04-18T18:51:12.067Z,8.53
2018-04-18T18:53:41.065Z,9.70
2018-04-18T18:56:11.752Z,11.57
2018-04-18T18:58:40.705Z,12.87
2018-04-18T19:01:10.003Z,11.33
2018-04-18T19:03:39.859Z,10.87
2018-04-18T19:06:08.975Z,10.27
2018-04-18T19:08:37.904Z,9.87
2018-04-18T19:11:07.010Z,10.40
2018-04-18T19:13:35.839Z,8.50
2018-04-18T19:16:04.884Z,9.10
2018-04-18T19:18:34.853Z,8.03
2018-04-18T19:21:03.899Z,7.20
2018-04-18T19:23:32.898Z,7.10
2018-04-18T19:26:02.769Z,7.90
2018-04-18T19:28:31.999Z,7.67
2018-04-18T19:31:01.046Z,7.37
2018-04-18T19:33:30.941Z,6.70
2018-04-18T19:36:00.132Z,6.90
2018-04-18T19:38:29.218Z,7.67
2018-04-18T19:40:59.754Z,7.50
2018-04-18T19:43:28.802Z,6.77
2018-04-18T19:45:57.900Z,7.40
2018-04-18T19:48:28.528Z,7.10
2018-04-18T19:50:57.685Z,7.90
2018-04-18T19:53:26.768Z,6.60
2018-04-18T19:55:58.422Z,6.67
2018-04-18T19:58:29.260Z,6.90
2018-04-18T20:00:58.286Z,7.10
2018-04-18T20:03:30.184Z,6.83
2018-04-18T20:05:59.170Z,7.70
2018-04-18T20:08:29.883Z,7.80
2018-04-18T20:13:33.318Z,7.87
2018-04-18T20:16:02.567Z,7.70
2018-04-18T20:18:31.553Z,8.20
2018-04-18T20:21:01.779Z,7.23
2018-04-18T20:23:30.786Z,6.87
2018-04-18T20:25:59.767Z,6.67
2018-04-18T20:28:28.761Z,7.30
2018-04-18T20:30:57.858Z,7.63
2018-04-18T20:33:29.815Z,8.30
2018-04-18T20:35:58.888Z,7.37
2018-04-18T20:38:29.341Z,7.93
2018-04-18T20:41:04.734Z,8.97
2018-04-18T20:43:33.676Z,7.97
2018-04-18T20:46:02.792Z,7.50
2018-04-18T20:48:31.962Z,6.73
2018-04-18T20:51:00.941Z,7.80
2018-04-18T20:53:29.866Z,8.00
2018-04-18T20:55:59.009Z,8.00
2018-04-18T20:58:28.003Z,8.70
2018-04-18T21:01:08.106Z,7.57
2018-04-18T21:03:37.351Z,8.40
2018-04-18T21:06:06.501Z,8.40
2018-04-18T21:08:36.716Z,8.43
2018-04-18T21:11:07.147Z,9.30
2018-04-18T21:13:36.247Z,8.47
2018-04-18T21:16:05.446Z,8.67
2018-04-18T21:18:34.330Z,8.00
2018-04-18T21:21:03.546Z,8.23
2018-04-18T21:23:34.267Z,8.90
2018-04-18T21:26:03.684Z,8.20
2018-04-18T21:28:32.782Z,9.20
2018-04-18T21:31:01.666Z,9.10
2018-04-18T21:33:30.553Z,8.37
2018-04-18T21:35:59.441Z,7.97
2018-04-18T21:38:30.387Z,8.57
2018-04-18T21:41:00.344Z,8.13
2018-04-18T21:43:29.347Z,9.23
2018-04-18T21:46:01.973Z,8.83
2018-04-18T21:48:31.998Z,8.80
2018-04-18T21:51:02.321Z,8.13
2018-04-18T21:53:33.869Z,8.20
2018-04-18T21:56:02.973Z,8.60
2018-04-18T21:58:32.739Z,8.70
2018-04-18T22:01:02.590Z,8.20
2018-04-18T22:03:31.639Z,9.57
2018-04-18T22:06:00.635Z,8.50
2018-04-18T22:08:34.715Z,9.63
2018-04-18T22:11:04.612Z,8.30
2018-04-18T22:13:34.318Z,9.27
2018-04-18T22:16:06.775Z,7.80
2018-04-18T22:18:35.842Z,7.97
2018-04-18T22:21:05.187Z,8.47
2018-04-18T22:26:11.041Z,8.27
2018-04-18T22:28:40.391Z,8.33
2018-04-18T22:31:09.342Z,9.00
2018-04-18T22:33:38.526Z,8.00
2018-04-18T22:36:07.451Z,8.30
2018-04-18T22:38:36.548Z,9.10
2018-04-18T22:41:08.181Z,8.87
2018-04-18T22:43:37.089Z,9.33
2018-04-18T22:46:06.927Z,9.00
2018-04-18T22:48:36.218Z,9.80
2018-04-18T22:51:05.206Z,10.50
2018-04-18T22:53:34.093Z,10.57
2018-04-18T22:56:03.346Z,10.63
2018-04-18T22:58:32.516Z,10.73
2018-04-18T23:01:02.246Z,11.17
2018-04-18T23:03:31.396Z,9.33
2018-04-18T23:06:00.395Z,11.00
2018-04-18T23:08:29.481Z,10.37
2018-04-18T23:10:58.379Z,9.83
2018-04-18T23:13:27.381Z,9.50
2018-04-18T23:15:57.864Z,9.40
2018-04-18T23:18:26.901Z,9.00
2018-04-18T23:20:55.894Z,9.10
2018-04-18T23:23:25.608Z,9.30
2018-04-18T23:25:54.909Z,9.67
2018-04-18T23:28:24.827Z,9.60
2018-04-18T23:30:53.845Z,9.70
2018-04-18T23:33:25.314Z,9.93
2018-04-18T23:35:54.271Z,9.20
2018-04-18T23:38:23.149Z,8.90
2018-04-18T23:40:54.062Z,7.93
2018-04-18T23:43:24.113Z,7.77
2018-04-18T23:45:53.114Z,7.37
2018-04-18T23:48:22.961Z,6.73
2018-04-18T23:50:51.963Z,6.60
2018-04-18T23:53:22.174Z,6.70
2018-04-18T23:55:52.001Z,6.20
2018-04-18T23:58:21.047Z,6.60
